Time;durP1;ratioP1;P1;durP2;ratioP2;P2;SDS_P1;SDS_P2;PMS_P1;PMS_P2;Temp;Humidity;BMP_temperature;BMP_pressure;BME280_temperature;BME280_humidity;BME280_pressure;Samples;Min_cycle;Max_cycle;Signal;HPM_P1;HPM_P2
2022/08/26 00:01:36;;;;;;;42.88;38.78;;;19.10;99.90;;;;;;4922632;29;20039;-80
2022/08/26 00:04:02;;;;;;;44.00;39.78;;;19.10;99.90;;;;;;4922185;29;20038;-80
2022/08/26 00:06:30;;;;;;;46.00;41.45;;;19.00;99.90;;;;;;4921212;29;20051;-80
2022/08/26 00:08:56;;;;;;;43.50;39.08;;;19.00;99.90;;;;;;4945245;29;20079;-80
2022/08/26 00:11:22;;;;;;;43.08;38.75;;;19.00;99.90;;;;;;4945508;29;20071;-81
2022/08/26 00:13:47;;;;;;;42.67;38.35;;;19.00;99.90;;;;;;4929285;29;20492;-80
2022/08/26 00:16:13;;;;;;;41.30;37.13;;;19.00;99.90;;;;;;4952913;28;20504;-80
2022/08/26 00:18:39;;;;;;;43.85;39.55;;;19.10;99.90;;;;;;4929755;29;20050;-81
2022/08/26 00:21:06;;;;;;;41.53;37.25;;;19.10;99.90;;;;;;4922167;29;20051;-80
2022/08/26 00:23:32;;;;;;;42.10;37.83;;;19.20;99.90;;;;;;4937733;29;20044;-80
2022/08/26 00:25:58;;;;;;;40.15;36.13;;;19.30;99.90;;;;;;4940200;29;20042;-80
2022/08/26 00:28:25;;;;;;;39.15;34.97;;;19.40;99.90;;;;;;4938637;29;20039;-80
2022/08/26 00:30:51;;;;;;;39.80;35.72;;;19.40;99.90;;;;;;4940057;29;20687;-81
2022/08/26 00:33:18;;;;;;;36.50;32.70;;;19.50;99.90;;;;;;4948687;28;20035;-80
2022/08/26 00:35:44;;;;;;;38.67;34.53;;;19.50;99.90;;;;;;4937164;29;20044;-80
2022/08/26 00:38:09;;;;;;;35.53;31.85;;;19.50;99.90;;;;;;4935794;29;20500;-80
2022/08/26 00:40:44;;;;;;;33.38;30.05;;;19.60;99.90;;;;;;4942845;29;20042;-80
2022/08/26 00:43:11;;;;;;;32.67;29.48;;;19.60;99.90;;;;;;4949243;29;20554;-80
2022/08/26 00:45:55;;;;;;;35.47;31.77;;;19.60;99.90;;;;;;4922865;29;20050;-80
2022/08/26 00:48:24;;;;;;;31.02;28.02;;;19.60;99.90;;;;;;4920860;29;20035;-80
2022/08/26 00:51:21;;;;;;;31.13;27.95;;;19.60;99.90;;;;;;4927875;29;20074;-80
2022/08/26 00:53:52;;;;;;;30.83;27.73;;;19.60;99.90;;;;;;4952440;29;20047;-80
2022/08/26 00:56:36;;;;;;;29.60;26.60;;;19.70;99.90;;;;;;4948229;28;20047;-80
2022/08/26 00:59:06;;;;;;;32.03;28.65;;;19.60;99.90;;;;;;4901619;29;20146;-80
2022/08/26 01:01:32;;;;;;;30.23;27.05;;;19.60;99.90;;;;;;4928417;29;20067;-80
2022/08/26 01:03:58;;;;;;;28.23;25.42;;;19.70;99.90;;;;;;4939662;29;20039;-80
2022/08/26 01:06:25;;;;;;;27.83;24.98;;;19.70;99.90;;;;;;4929746;29;20180;-81
2022/08/26 01:08:51;;;;;;;26.98;24.27;;;19.70;99.90;;;;;;4944403;28;20043;-80
2022/08/26 01:11:17;;;;;;;25.27;22.80;;;19.70;99.90;;;;;;4927975;29;20039;-81
2022/08/26 01:13:43;;;;;;;27.25;24.50;;;19.70;99.90;;;;;;4954441;29;20042;-81
2022/08/26 01:16:11;;;;;;;26.13;23.52;;;19.70;99.90;;;;;;4948001;28;20039;-80
2022/08/26 01:18:40;;;;;;;24.35;22.05;;;19.70;99.90;;;;;;4935225;29;20095;-80
2022/08/26 01:21:27;;;;;;;23.83;21.52;;;19.70;99.90;;;;;;4942795;29;20039;-80
2022/08/26 01:23:54;;;;;;;22.55;20.42;;;19.70;99.90;;;;;;4955515;29;20059;-80
2022/08/26 01:26:32;;;;;;;24.08;21.75;;;19.70;99.90;;;;;;4955614;28;20047;-80
2022/08/26 01:29:01;;;;;;;22.20;20.05;;;19.80;99.90;;;;;;4955519;29;20082;-80
2022/08/26 01:31:33;;;;;;;22.00;19.85;;;19.70;99.90;;;;;;4932592;29;20139;-80
2022/08/26 01:34:05;;;;;;;21.65;19.75;;;19.70;99.90;;;;;;4928066;29;20092;-80
2022/08/26 01:36:31;;;;;;;20.42;18.42;;;19.70;99.90;;;;;;4936862;29;20035;-80
2022/08/26 01:38:57;;;;;;;20.33;18.27;;;19.70;99.90;;;;;;4923825;29;20039;-80
2022/08/26 01:41:24;;;;;;;18.70;16.95;;;19.80;99.90;;;;;;4945832;29;20483;-80
2022/08/26 01:43:54;;;;;;;19.52;17.63;;;19.70;99.90;;;;;;4925051;29;20042;-81
2022/08/26 01:46:22;;;;;;;18.30;16.70;;;19.80;99.90;;;;;;4932699;29;20035;-81
2022/08/26 01:48:50;;;;;;;18.30;16.60;;;19.70;99.90;;;;;;4918419;29;20051;-81
2022/08/26 01:51:17;;;;;;;18.63;16.88;;;19.80;99.90;;;;;;4926380;29;20039;-81
2022/08/26 01:53:44;;;;;;;17.67;16.10;;;19.70;99.90;;;;;;4944706;29;20443;-80
2022/08/26 01:56:11;;;;;;;17.75;15.95;;;19.80;99.90;;;;;;4936028;29;20042;-81
2022/08/26 01:58:52;;;;;;;17.75;16.13;;;19.70;99.90;;;;;;4944615;29;20451;-81
2022/08/26 02:01:20;;;;;;;17.02;15.35;;;19.70;99.90;;;;;;4926372;29;20133;-80
2022/08/26 02:04:17;;;;;;;14.95;13.43;;;19.70;99.90;;;;;;4931326;29;20042;-81
2022/08/26 02:06:44;;;;;;;15.38;13.88;;;19.70;99.90;;;;;;4939242;28;20465;-81
2022/08/26 02:09:11;;;;;;;14.45;13.05;;;19.70;99.90;;;;;;4930909;29;20035;-81
2022/08/26 02:11:37;;;;;;;12.57;11.45;;;19.80;99.90;;;;;;4939083;29;20048;-80
2022/08/26 02:14:18;;;;;;;13.45;11.48;;;19.80;99.90;;;;;;4926917;29;20036;-81
2022/08/26 02:16:47;;;;;;;13.07;11.43;;;19.80;99.90;;;;;;4921495;29;20079;-81
2022/08/26 02:19:16;;;;;;;12.98;11.77;;;19.80;99.90;;;;;;4926953;29;20046;-81
2022/08/26 02:21:43;;;;;;;11.88;10.77;;;19.80;99.90;;;;;;4946858;29;20051;-81
2022/08/26 02:24:44;;;;;;;11.13;10.07;;;19.80;99.90;;;;;;4946978;29;20463;-80
2022/08/26 02:27:10;;;;;;;11.85;10.52;;;19.80;99.90;;;;;;4900770;29;20138;-81
2022/08/26 02:29:42;;;;;;;11.30;10.30;;;19.80;99.90;;;;;;4901595;29;20127;-80
2022/08/26 02:32:09;;;;;;;11.52;10.38;;;19.80;99.90;;;;;;4925731;29;20034;-80
2022/08/26 02:34:34;;;;;;;11.07;9.98;;;19.80;99.90;;;;;;4921179;29;20063;-80
2022/08/26 02:37:04;;;;;;;11.00;9.77;;;19.80;99.90;;;;;;4921824;29;20412;-80
2022/08/26 02:39:31;;;;;;;10.82;9.82;;;19.80;99.90;;;;;;4946732;28;20043;-80
2022/08/26 02:41:58;;;;;;;10.20;9.20;;;19.70;99.90;;;;;;4938422;29;20522;-80
2022/08/26 02:44:24;;;;;;;10.38;9.38;;;19.70;99.90;;;;;;4953969;28;20047;-81
2022/08/26 02:46:51;;;;;;;10.15;9.25;;;19.70;99.90;;;;;;4948697;28;20380;-80
2022/08/26 02:49:18;;;;;;;10.07;9.07;;;19.70;99.90;;;;;;4936584;29;20040;-80
2022/08/26 02:51:44;;;;;;;9.88;8.88;;;19.70;99.90;;;;;;4934680;29;20110;-81
2022/08/26 02:54:10;;;;;;;9.77;8.77;;;19.50;99.90;;;;;;4934759;29;20035;-80
2022/08/26 02:56:35;;;;;;;11.00;9.57;;;19.60;99.90;;;;;;4937280;29;20035;-80
2022/08/26 02:59:01;;;;;;;9.85;8.85;;;19.60;99.90;;;;;;4944873;28;20047;-80
2022/08/26 03:01:30;;;;;;;10.23;9.32;;;19.50;99.90;;;;;;4927871;29;20134;-80
2022/08/26 03:03:57;;;;;;;10.80;9.75;;;19.50;99.90;;;;;;4910487;29;20496;-80
2022/08/26 03:06:23;;;;;;;9.50;8.60;;;19.50;99.90;;;;;;4926495;29;20476;-80
2022/08/26 03:08:49;;;;;;;9.90;8.80;;;19.40;99.90;;;;;;4927506;29;20134;-81
2022/08/26 03:11:15;;;;;;;10.50;9.32;;;19.40;99.90;;;;;;4920533;29;20091;-80
2022/08/26 03:13:41;;;;;;;9.93;8.30;;;19.30;99.90;;;;;;4927375;29;20035;-80
2022/08/26 03:16:07;;;;;;;9.43;8.13;;;19.30;99.90;;;;;;4919716;29;20083;-80
2022/08/26 03:18:33;;;;;;;9.73;8.50;;;19.20;99.90;;;;;;4946889;29;20142;-80
2022/08/26 03:21:09;;;;;;;9.32;8.38;;;19.20;99.90;;;;;;4931596;29;20047;-80
2022/08/26 03:23:37;;;;;;;9.35;8.15;;;19.20;99.90;;;;;;4932159;29;20043;-80
2022/08/26 03:26:03;;;;;;;8.13;7.32;;;19.20;99.90;;;;;;4935036;29;20043;-80
2022/08/26 03:28:29;;;;;;;8.27;7.38;;;19.20;99.90;;;;;;4927088;29;20043;-80
2022/08/26 03:30:55;;;;;;;7.93;6.10;;;19.20;99.90;;;;;;4938551;29;20047;-80
2022/08/26 03:33:21;;;;;;;8.30;5.95;;;19.20;99.90;;;;;;4938642;29;20126;-80
2022/08/26 03:35:47;;;;;;;6.97;5.03;;;19.30;99.90;;;;;;4928646;29;20080;-80
2022/08/26 03:38:13;;;;;;;7.38;4.40;;;19.30;99.90;;;;;;4926647;29;20043;-81
2022/08/26 03:40:39;;;;;;;5.13;3.90;;;19.30;99.90;;;;;;4942223;29;20039;-80
2022/08/26 03:43:06;;;;;;;6.22;3.72;;;19.30;99.90;;;;;;4919645;29;20055;-81
2022/08/26 03:45:32;;;;;;;7.22;3.85;;;19.30;99.90;;;;;;4934895;29;20044;-80
2022/08/26 03:47:58;;;;;;;5.07;4.10;;;19.30;99.90;;;;;;4942191;29;20110;-80
2022/08/26 03:50:24;;;;;;;5.95;3.78;;;19.30;99.90;;;;;;4924670;29;20492;-79
2022/08/26 03:52:52;;;;;;;4.05;3.50;;;19.30;99.90;;;;;;4918001;29;20039;-80
2022/08/26 03:55:20;;;;;;;5.63;3.67;;;19.30;99.90;;;;;;4918773;29;20074;-81
2022/08/26 03:57:46;;;;;;;4.80;3.67;;;19.30;99.90;;;;;;4920463;29;20036;-81
2022/08/26 04:00:14;;;;;;;5.55;3.80;;;19.40;99.90;;;;;;4946054;29;20043;-80
2022/08/26 04:02:42;;;;;;;5.57;3.33;;;19.30;99.90;;;;;;4929607;29;20046;-80
2022/08/26 04:05:09;;;;;;;5.30;3.83;;;19.40;99.90;;;;;;4927282;28;20436;-80
2022/08/26 04:07:35;;;;;;;4.57;3.10;;;19.40;99.90;;;;;;4927203;29;20047;-80
2022/08/26 04:10:02;;;;;;;6.80;3.63;;;19.40;99.90;;;;;;4948240;29;20044;-81
2022/08/26 04:12:28;;;;;;;5.72;4.05;;;19.40;99.90;;;;;;4939762;29;20373;-80
2022/08/26 04:14:54;;;;;;;6.95;3.40;;;19.40;99.90;;;;;;4947875;29;20042;-80
2022/08/26 04:17:19;;;;;;;4.65;3.13;;;19.20;99.90;;;;;;4930696;29;20484;-81
2022/08/26 04:19:45;;;;;;;5.47;2.97;;;19.30;99.90;;;;;;4920309;29;20122;-81
2022/08/26 04:22:11;;;;;;;2.90;2.60;;;19.40;99.90;;;;;;4920194;29;20127;-83
2022/08/26 04:24:38;;;;;;;4.10;3.00;;;19.40;99.90;;;;;;4936378;29;20044;-80
2022/08/26 04:27:07;;;;;;;4.00;2.95;;;19.30;99.90;;;;;;4936177;29;20043;-81
2022/08/26 04:29:33;;;;;;;3.38;2.88;;;19.40;99.90;;;;;;4944979;29;20384;-80
2022/08/26 04:31:59;;;;;;;4.55;2.65;;;19.40;99.90;;;;;;4943092;29;20094;-80
2022/08/26 04:34:26;;;;;;;4.95;2.50;;;19.40;99.90;;;;;;4919627;29;20055;-80
2022/08/26 04:36:51;;;;;;;4.13;2.58;;;19.30;99.90;;;;;;4931857;29;20043;-81
2022/08/26 04:39:19;;;;;;;5.63;3.00;;;19.40;99.90;;;;;;4943543;29;20050;-80
2022/08/26 04:41:47;;;;;;;4.78;2.75;;;19.40;99.90;;;;;;4936141;29;20039;-80
2022/08/26 04:44:13;;;;;;;4.25;2.55;;;19.30;99.90;;;;;;4919761;29;20047;-80
2022/08/26 04:46:39;;;;;;;4.55;2.88;;;19.40;99.90;;;;;;4919753;29;20043;-80
2022/08/26 04:49:07;;;;;;;3.58;2.60;;;19.40;99.90;;;;;;4941189;29;20044;-80
2022/08/26 04:51:33;;;;;;;6.38;2.67;;;19.30;99.90;;;;;;4925201;29;20036;-80
2022/08/26 04:53:59;;;;;;;5.32;2.65;;;19.40;99.90;;;;;;4925772;29;20036;-80
2022/08/26 04:56:28;;;;;;;3.88;2.58;;;19.40;99.90;;;;;;4942216;28;20453;-80
2022/08/26 04:58:54;;;;;;;4.90;2.78;;;19.40;99.90;;;;;;4942299;29;20334;-80
2022/08/26 05:01:20;;;;;;;4.45;2.40;;;19.50;99.90;;;;;;4932468;29;20098;-80
2022/08/26 05:03:47;;;;;;;3.92;2.58;;;19.50;99.90;;;;;;4916313;29;20044;-80
2022/08/26 05:06:13;;;;;;;6.65;2.78;;;19.50;99.90;;;;;;4926774;29;20130;-82
2022/08/26 05:08:39;;;;;;;3.78;2.65;;;19.50;99.90;;;;;;4929451;29;20446;-81
2022/08/26 05:11:06;;;;;;;5.88;2.70;;;19.60;99.90;;;;;;4947905;29;20094;-80
2022/08/26 05:13:33;;;;;;;4.28;2.90;;;19.60;99.90;;;;;;4938551;29;20126;-80
2022/08/26 05:16:03;;;;;;;5.13;2.90;;;19.70;99.90;;;;;;4938407;29;20175;-80
2022/08/26 05:18:29;;;;;;;4.30;2.67;;;19.70;99.90;;;;;;4941561;28;20130;-81
2022/08/26 05:20:54;;;;;;;5.80;3.20;;;19.70;99.90;;;;;;4946416;29;20126;-80
2022/08/26 05:23:21;;;;;;;4.75;2.42;;;19.80;99.90;;;;;;4930085;29;20043;-80
2022/08/26 05:25:49;;;;;;;5.07;2.83;;;19.90;99.90;;;;;;4929186;29;20176;-82
2022/08/26 05:28:17;;;;;;;5.25;2.67;;;19.90;99.90;;;;;;4951706;28;20039;-80
2022/08/26 05:30:43;;;;;;;6.13;3.50;;;20.00;99.90;;;;;;4950125;29;20177;-82
2022/08/26 05:33:10;;;;;;;3.92;2.80;;;20.00;99.90;;;;;;4918713;29;20486;-82
2022/08/26 05:35:37;;;;;;;6.03;3.00;;;20.00;99.90;;;;;;4951033;28;20408;-81
2022/08/26 05:38:09;;;;;;;5.22;2.85;;;20.10;99.90;;;;;;4929183;29;20042;-80
2022/08/26 05:40:37;;;;;;;6.72;2.78;;;20.10;99.90;;;;;;4922717;29;20121;-80
2022/08/26 05:43:09;;;;;;;5.03;2.85;;;20.10;99.90;;;;;;4931269;29;20086;-80
2022/08/26 05:45:39;;;;;;;4.65;2.33;;;20.20;99.90;;;;;;4921497;29;20040;-80
2022/08/26 05:48:08;;;;;;;4.53;2.63;;;20.20;99.90;;;;;;4927570;29;20039;-81
2022/08/26 05:50:46;;;;;;;5.25;2.72;;;20.20;99.90;;;;;;4936778;29;20036;-80
2022/08/26 05:53:13;;;;;;;5.40;2.33;;;20.10;99.90;;;;;;4936720;29;20071;-81
2022/08/26 05:55:45;;;;;;;4.18;2.72;;;20.20;99.90;;;;;;4926302;29;20036;-80
2022/08/26 05:58:11;;;;;;;3.53;2.03;;;20.20;99.90;;;;;;4934531;29;20098;-81
2022/08/26 06:00:38;;;;;;;2.65;2.08;;;20.20;99.90;;;;;;4917870;29;20437;-80
2022/08/26 06:03:04;;;;;;;5.95;2.50;;;20.10;99.90;;;;;;4930394;29;20114;-81
2022/08/26 06:05:30;;;;;;;3.30;2.05;;;20.20;99.90;;;;;;4941027;29;20527;-82
2022/08/26 06:08:12;;;;;;;4.88;2.22;;;20.20;99.90;;;;;;4936715;29;20042;-82
2022/08/26 06:10:49;;;;;;;4.18;2.17;;;20.10;99.90;;;;;;4930189;29;20040;-80
2022/08/26 06:13:17;;;;;;;2.80;1.70;;;20.20;99.90;;;;;;4928256;29;20507;-81
2022/08/26 06:15:48;;;;;;;5.43;2.00;;;20.20;99.90;;;;;;4957260;28;20035;-80
2022/08/26 06:18:17;;;;;;;2.22;1.65;;;20.20;99.90;;;;;;4918040;29;20039;-80
2022/08/26 06:20:45;;;;;;;3.28;1.50;;;20.20;99.90;;;;;;4917272;29;20091;-80
2022/08/26 06:25:56;;;;;;;5.65;1.63;;;20.20;99.90;;;;;;4936424;29;20043;-80
2022/08/26 06:28:23;;;;;;;5.05;1.77;;;20.20;99.90;;;;;;4922103;29;20444;-80
2022/08/26 06:30:49;;;;;;;4.90;1.52;;;20.20;99.90;;;;;;4931268;29;20087;-81
2022/08/26 06:33:15;;;;;;;3.55;1.67;;;20.20;99.90;;;;;;4917025;29;20040;-82
2022/08/26 06:35:41;;;;;;;4.32;1.60;;;20.20;99.90;;;;;;4925548;29;20050;-80
2022/08/26 06:38:08;;;;;;;3.53;1.67;;;20.20;99.90;;;;;;4907323;29;20074;-80
2022/08/26 06:40:49;;;;;;;3.60;1.70;;;20.20;99.90;;;;;;4934242;29;20059;-81
2022/08/26 06:43:16;;;;;;;3.38;1.50;;;20.20;99.90;;;;;;4924182;29;20055;-78
2022/08/26 06:45:44;;;;;;;4.53;1.40;;;20.20;99.90;;;;;;4922735;29;20032;-80
2022/08/26 06:48:12;;;;;;;4.88;1.88;;;20.30;99.90;;;;;;4945189;28;20097;-80
2022/08/26 06:50:37;;;;;;;6.90;1.63;;;20.30;99.90;;;;;;4918741;29;20044;-82
2022/08/26 06:53:03;;;;;;;3.08;1.35;;;20.30;99.90;;;;;;4935164;29;20083;-81
2022/08/26 06:55:29;;;;;;;4.40;1.60;;;20.30;99.90;;;;;;4924234;29;20456;-81
2022/08/26 06:57:55;;;;;;;2.10;1.30;;;20.30;99.90;;;;;;4916510;29;20408;-81
2022/08/26 07:00:21;;;;;;;3.40;1.50;;;20.30;99.90;;;;;;4918239;29;20040;-82
2022/08/26 07:02:48;;;;;;;4.13;1.35;;;20.30;99.90;;;;;;4940638;29;20139;-82
2022/08/26 07:05:14;;;;;;;2.65;1.38;;;20.30;99.90;;;;;;4938515;29;20079;-80
2022/08/26 07:07:39;;;;;;;3.78;1.38;;;20.20;99.90;;;;;;4916733;29;20044;-83
2022/08/26 07:10:07;;;;;;;4.53;1.88;;;20.20;99.90;;;;;;4916364;29;20039;-80
2022/08/26 07:12:34;;;;;;;3.92;1.35;;;20.20;99.90;;;;;;4916845;29;20041;-81
2022/08/26 07:15:00;;;;;;;2.42;1.30;;;20.20;99.90;;;;;;4921198;29;20035;-81
2022/08/26 07:17:25;;;;;;;3.28;1.60;;;20.20;99.90;;;;;;4941818;29;20031;-81
2022/08/26 07:19:52;;;;;;;3.58;1.88;;;20.20;99.90;;;;;;4925159;29;20047;-82
2022/08/26 07:22:17;;;;;;;3.72;1.70;;;20.20;99.90;;;;;;4923081;29;20039;-81
2022/08/26 07:24:44;;;;;;;2.90;1.40;;;20.20;99.90;;;;;;4917526;29;20069;-81
2022/08/26 07:27:14;;;;;;;2.78;1.35;;;20.30;99.90;;;;;;4929258;29;20098;-81
2022/08/26 07:29:42;;;;;;;2.85;1.35;;;20.20;99.90;;;;;;4934802;29;20040;-80
2022/08/26 07:32:09;;;;;;;2.45;1.30;;;20.30;99.90;;;;;;4925758;29;20106;-81
2022/08/26 07:34:36;;;;;;;3.65;1.50;;;20.30;99.90;;;;;;4922181;29;21810;-82
2022/08/26 07:37:03;;;;;;;3.63;1.65;;;20.30;99.90;;;;;;4939858;29;20035;-82
2022/08/26 07:39:30;;;;;;;3.85;1.48;;;20.30;99.90;;;;;;4917428;29;20044;-82
2022/08/26 07:41:56;;;;;;;1.98;1.15;;;20.30;99.90;;;;;;4919316;29;20436;-82
2022/08/26 07:44:22;;;;;;;2.58;1.13;;;20.30;99.90;;;;;;4919087;29;20051;-82
2022/08/26 07:46:49;;;;;;;3.45;1.35;;;20.40;99.90;;;;;;4921141;29;20407;-82
2022/08/26 07:49:16;;;;;;;2.65;1.58;;;20.40;99.90;;;;;;4920785;29;20187;-82
2022/08/26 07:51:42;;;;;;;1.88;1.23;;;20.40;99.90;;;;;;4920864;29;20147;-82
2022/08/26 07:54:08;;;;;;;3.88;1.20;;;20.50;99.90;;;;;;4920971;29;20122;-82
2022/08/26 07:56:34;;;;;;;2.65;1.23;;;20.40;99.90;;;;;;4920869;29;20131;-81
2022/08/26 07:58:59;;;;;;;2.35;1.10;;;20.40;99.90;;;;;;4919616;29;20039;-82
2022/08/26 08:01:25;;;;;;;1.73;1.00;;;20.50;99.90;;;;;;4941233;29;20050;-81
2022/08/26 08:03:53;;;;;;;2.75;0.90;;;20.50;99.90;;;;;;4927440;29;20039;-80
2022/08/26 08:06:21;;;;;;;2.22;1.20;;;20.60;99.90;;;;;;4934735;29;20471;-78
2022/08/26 08:08:47;;;;;;;2.95;1.17;;;20.60;99.90;;;;;;4947001;29;20063;-79
2022/08/26 08:11:13;;;;;;;3.63;1.25;;;20.60;99.90;;;;;;4933076;29;20115;-79
2022/08/26 08:13:39;;;;;;;3.03;1.00;;;20.60;99.90;;;;;;4923004;29;20043;-77
2022/08/26 08:16:06;;;;;;;3.53;1.00;;;20.70;99.90;;;;;;4941761;28;20444;-77
2022/08/26 08:18:32;;;;;;;3.00;1.10;;;20.70;99.90;;;;;;4949616;29;20156;-79
2022/08/26 08:21:01;;;;;;;2.63;1.10;;;20.70;99.90;;;;;;4941196;29;20105;-79
2022/08/26 08:23:27;;;;;;;1.75;1.05;;;20.80;99.90;;;;;;4938381;28;20559;-78
2022/08/26 08:26:09;;;;;;;3.65;1.17;;;20.80;99.90;;;;;;4927391;29;20412;-78
2022/08/26 08:28:38;;;;;;;3.65;1.23;;;20.90;99.90;;;;;;4918929;29;20122;-78
2022/08/26 08:31:04;;;;;;;4.18;1.08;;;20.90;99.90;;;;;;4935069;29;20404;-78
2022/08/26 08:33:30;;;;;;;3.35;0.90;;;20.90;99.90;;;;;;4943133;29;20051;-78
2022/08/26 08:35:57;;;;;;;1.13;0.90;;;20.90;99.90;;;;;;4925872;29;20034;-77
2022/08/26 08:38:23;;;;;;;1.83;0.80;;;21.00;99.90;;;;;;4942102;29;20047;-80
2022/08/26 08:40:50;;;;;;;4.93;1.25;;;20.90;99.90;;;;;;4930861;29;20050;-80
2022/08/26 08:43:32;;;;;;;3.70;1.10;;;21.00;99.90;;;;;;4921925;29;20042;-80
2022/08/26 08:46:06;;;;;;;2.75;1.00;;;21.00;99.90;;;;;;4934247;29;20050;-80
2022/08/26 08:48:37;;;;;;;3.15;1.10;;;21.10;99.90;;;;;;4919735;29;20476;-80
2022/08/26 08:51:30;;;;;;;2.38;1.02;;;21.10;99.90;;;;;;4919799;29;20134;-79
2022/08/26 08:53:57;;;;;;;2.17;0.80;;;21.10;99.90;;;;;;4935129;29;20043;-80
2022/08/26 08:56:34;;;;;;;2.47;1.08;;;21.20;99.90;;;;;;4934576;29;20047;-80
2022/08/26 08:59:14;;;;;;;2.72;0.90;;;21.20;99.90;;;;;;4912451;29;20043;-80
2022/08/26 09:02:02;;;;;;;2.55;0.90;;;21.20;99.90;;;;;;4941854;29;20123;-81
2022/08/26 09:04:55;;;;;;;3.97;1.08;;;21.20;99.90;;;;;;4936394;29;20528;-78
2022/08/26 09:07:56;;;;;;;2.38;0.80;;;21.20;99.90;;;;;;4933924;29;20046;-79
2022/08/26 09:10:35;;;;;;;3.47;1.35;;;21.20;99.90;;;;;;4916690;29;20564;-79
2022/08/26 09:13:05;;;;;;;2.28;0.75;;;21.20;99.90;;;;;;4916242;29;20047;-79
2022/08/26 09:15:51;;;;;;;1.80;0.90;;;21.20;99.90;;;;;;4929730;29;20091;-78
2022/08/26 09:18:23;;;;;;;2.28;0.82;;;21.30;99.90;;;;;;4939737;29;20040;-78
2022/08/26 09:20:58;;;;;;;2.25;0.70;;;21.30;99.90;;;;;;4935874;29;20040;-79
2022/08/26 09:23:25;;;;;;;1.77;0.70;;;21.30;99.90;;;;;;4940696;29;20039;-79
2022/08/26 09:26:13;;;;;;;3.00;0.90;;;21.30;99.90;;;;;;4941974;29;20039;-79
2022/08/26 09:28:43;;;;;;;1.40;0.80;;;21.20;99.90;;;;;;4934453;29;20071;-78
2022/08/26 09:31:26;;;;;;;3.15;0.95;;;21.20;99.90;;;;;;4935196;29;20050;-79
2022/08/26 09:34:12;;;;;;;1.58;0.73;;;21.20;99.90;;;;;;4918996;29;20086;-78
2022/08/26 09:36:44;;;;;;;3.40;0.85;;;21.10;99.90;;;;;;4932578;29;20164;-78
2022/08/26 09:39:29;;;;;;;1.73;0.70;;;21.10;99.90;;;;;;4937583;29;20130;-79
2022/08/26 09:42:24;;;;;;;4.32;0.93;;;21.00;99.90;;;;;;4933452;29;20049;-78
2022/08/26 09:45:02;;;;;;;2.25;0.80;;;20.90;99.90;;;;;;4957178;28;20039;-78
2022/08/26 09:47:36;;;;;;;2.97;0.80;;;20.90;99.90;;;;;;4936398;29;20118;-78
2022/08/26 09:50:22;;;;;;;1.85;0.70;;;21.00;99.90;;;;;;4926289;29;20044;-78
2022/08/26 09:53:04;;;;;;;2.47;1.15;;;21.00;99.90;;;;;;4929737;29;20043;-78
2022/08/26 09:55:30;;;;;;;3.28;1.02;;;21.10;99.90;;;;;;4940262;28;20433;-78
2022/08/26 09:57:55;;;;;;;2.63;0.80;;;21.20;99.90;;;;;;4939254;29;20155;-78
2022/08/26 10:00:55;;;;;;;1.33;0.75;;;21.10;99.90;;;;;;4938020;29;20459;-79
2022/08/26 10:03:28;;;;;;;1.58;0.70;;;21.20;99.90;;;;;;4940167;29;20094;-78
2022/08/26 10:06:12;;;;;;;;;;;21.20;99.90;;;;;;4938734;28;20049;-78
2022/08/26 10:08:42;;;;;;;1.38;0.68;;;21.20;99.90;;;;;;4941538;29;19923;-78
2022/08/26 10:11:21;;;;;;;3.17;0.90;;;21.20;99.90;;;;;;4941836;29;20160;-78
2022/08/26 10:13:54;;;;;;;1.65;0.73;;;21.20;99.90;;;;;;4945306;28;20416;-79
2022/08/26 10:16:26;;;;;;;1.85;0.68;;;21.20;99.90;;;;;;4933947;29;20043;-78
2022/08/26 10:18:59;;;;;;;3.47;1.00;;;21.30;99.90;;;;;;4931439;29;20043;-81
2022/08/26 10:21:36;;;;;;;1.48;0.70;;;21.30;99.90;;;;;;4932808;29;20075;-82
2022/08/26 10:24:04;;;;;;;3.08;0.80;;;21.30;99.90;;;;;;4937793;29;20513;-81
2022/08/26 10:26:41;;;;;;;3.38;0.63;;;21.30;99.90;;;;;;4955932;28;20107;-80
2022/08/26 10:29:19;;;;;;;1.85;0.80;;;21.40;99.90;;;;;;4949664;29;20051;-79
2022/08/26 10:32:01;;;;;;;3.28;0.75;;;21.50;99.90;;;;;;4924796;29;20145;-79
2022/08/26 10:34:27;;;;;;;3.17;0.93;;;21.70;99.90;;;;;;4919711;29;20040;-79
2022/08/26 10:36:58;;;;;;;2.13;0.40;;;21.70;99.90;;;;;;4945688;28;20420;-79
2022/08/26 10:39:35;;;;;;;1.58;0.70;;;21.70;99.90;;;;;;4941845;29;20460;-78
2022/08/26 10:42:08;;;;;;;2.40;0.60;;;21.60;99.90;;;;;;4915467;29;20062;-78
2022/08/26 10:44:36;;;;;;;;;;;21.50;99.90;;;;;;4917506;29;20344;-78
2022/08/26 10:47:23;;;;;;;1.52;0.63;;;21.50;99.90;;;;;;4924816;29;20410;-78
2022/08/26 10:49:51;;;;;;;1.35;0.50;;;21.40;99.90;;;;;;4920478;29;20044;-79
2022/08/26 10:52:38;;;;;;;2.08;0.63;;;21.30;99.90;;;;;;4939655;29;20125;-80
2022/08/26 10:55:18;;;;;;;2.05;0.60;;;21.30;99.90;;;;;;4956466;28;20040;-80
2022/08/26 10:58:19;;;;;;;3.83;0.85;;;21.20;99.90;;;;;;4923305;29;20126;-80
2022/08/26 11:03:51;;;;;;;;;;;21.10;99.90;;;;;;4951378;28;20067;-80
2022/08/26 11:06:17;;;;;;;2.40;0.70;;;21.20;99.90;;;;;;4958198;28;19922;-80
2022/08/26 11:09:04;;;;;;;1.50;0.60;;;21.20;99.90;;;;;;4932282;29;20518;-80
2022/08/26 11:11:39;;;;;;;2.80;0.70;;;21.20;99.90;;;;;;4914053;29;20488;-81
2022/08/26 11:14:18;;;;;;;2.13;0.60;;;21.30;99.90;;;;;;4919903;29;20109;-80
2022/08/26 11:16:52;;;;;;;4.05;1.15;;;21.30;99.90;;;;;;4917825;29;20492;-81
2022/08/26 11:19:40;;;;;;;1.27;0.52;;;21.40;99.90;;;;;;4925078;29;20044;-80
2022/08/26 11:22:32;;;;;;;1.52;0.50;;;21.40;99.90;;;;;;4928053;29;20044;-80
2022/08/26 11:24:59;;;;;;;2.33;0.80;;;21.30;99.90;;;;;;4928179;29;20043;-80
2022/08/26 11:27:24;;;;;;;1.88;0.93;;;21.30;99.90;;;;;;4919439;29;20078;-81
2022/08/26 11:30:05;;;;;;;3.30;0.88;;;21.20;99.90;;;;;;4920420;29;20075;-81
2022/08/26 11:32:34;;;;;;;2.05;0.60;;;21.10;99.90;;;;;;4936633;29;20065;-81
2022/08/26 11:35:03;;;;;;;2.15;0.65;;;21.10;99.90;;;;;;4932297;29;20042;-81
2022/08/26 11:37:34;;;;;;;1.95;0.70;;;21.00;99.90;;;;;;4922426;29;20047;-81
2022/08/26 11:40:02;;;;;;;2.13;0.60;;;20.90;99.90;;;;;;4927187;29;20119;-81
2022/08/26 11:42:42;;;;;;;2.90;0.77;;;20.80;99.90;;;;;;4936109;29;20504;-81
2022/08/26 11:45:23;;;;;;;3.10;1.35;;;20.70;99.90;;;;;;4936609;29;20035;-81
2022/08/26 11:47:48;;;;;;;1.35;0.60;;;20.70;99.90;;;;;;4940686;29;20031;-80
2022/08/26 11:50:27;;;;;;;1.55;0.70;;;20.70;99.90;;;;;;4932205;29;20047;-80
2022/08/26 11:53:03;;;;;;;1.42;0.68;;;20.80;99.90;;;;;;4913628;29;20040;-80
2022/08/26 11:55:35;;;;;;;1.60;0.50;;;20.90;99.90;;;;;;4919373;29;20035;-81
2022/08/26 11:58:03;;;;;;;1.35;0.50;;;21.10;99.90;;;;;;4937648;29;20042;-81
2022/08/26 12:00:32;;;;;;;1.73;0.50;;;21.30;99.90;;;;;;4923927;29;20043;-81
2022/08/26 12:03:01;;;;;;;1.17;0.30;;;21.50;99.90;;;;;;4923068;29;20039;-81
2022/08/26 12:05:29;;;;;;;0.70;0.57;;;21.60;99.90;;;;;;4936850;28;20530;-81
2022/08/26 12:07:55;;;;;;;1.83;0.60;;;21.70;99.90;;;;;;4944757;29;20130;-80
2022/08/26 12:10:28;;;;;;;2.95;0.70;;;21.90;99.90;;;;;;4915901;29;20040;-80
2022/08/26 12:12:56;;;;;;;;;;;22.00;99.90;;;;;;4936153;29;20094;-82
2022/08/26 12:15:22;;;;;;;1.25;0.38;;;22.20;99.90;;;;;;4916642;29;19925;-82
2022/08/26 12:17:51;;;;;;;1.08;0.50;;;22.50;99.90;;;;;;4935176;29;20032;-81
2022/08/26 12:20:47;;;;;;;1.40;0.40;;;22.90;99.90;;;;;;4930100;29;20042;-80
2022/08/26 12:23:21;;;;;;;1.45;0.60;;;23.40;99.90;;;;;;4935016;29;20500;-80
2022/08/26 12:25:49;;;;;;;1.63;0.60;;;23.60;99.90;;;;;;4926195;29;20045;-80
2022/08/26 12:28:14;;;;;;;2.30;0.60;;;23.70;99.90;;;;;;4923570;29;20047;-80
2022/08/26 12:30:41;;;;;;;2.78;0.68;;;23.80;99.90;;;;;;4936352;29;20102;-80
2022/08/26 12:33:12;;;;;;;2.17;0.60;;;23.80;99.90;;;;;;4919973;29;20035;-81
2022/08/26 12:35:39;;;;;;;1.00;0.40;;;23.80;99.90;;;;;;4943404;28;20133;-82
2022/08/26 12:38:07;;;;;;;2.10;0.60;;;23.80;99.90;;;;;;4925133;29;20067;-81
2022/08/26 12:40:40;;;;;;;1.23;0.40;;;23.60;99.90;;;;;;4924680;29;20102;-83
2022/08/26 12:43:06;;;;;;;;;;;23.40;99.90;;;;;;4939543;29;20039;-84
2022/08/26 12:45:53;;;;;;;1.92;0.47;;;23.20;99.90;;;;;;4921884;29;20387;-80
2022/08/26 12:48:28;;;;;;;2.08;0.68;;;22.90;99.90;;;;;;4923034;29;20346;-79
2022/08/26 12:50:54;;;;;;;1.15;0.40;;;22.70;99.90;;;;;;4932156;29;20036;-80
2022/08/26 12:53:23;;;;;;;1.40;0.75;;;22.50;99.90;;;;;;4940593;29;20554;-80
2022/08/26 12:55:52;;;;;;;6.00;0.90;;;22.40;99.90;;;;;;4940264;28;20459;-78
2022/08/26 12:58:26;;;;;;;1.13;0.68;;;22.30;99.90;;;;;;4935648;29;20126;-79
2022/08/26 13:01:11;;;;;;;;;;;22.10;99.90;;;;;;4937340;29;20062;-79
2022/08/26 13:03:44;;;;;;;0.90;0.40;;;22.00;99.90;;;;;;4935894;29;19922;-82
2022/08/26 13:06:28;;;;;;;;;;;21.80;99.90;;;;;;4926431;29;20063;-80
2022/08/26 13:09:08;;;;;;;2.70;0.70;;;21.70;99.90;;;;;;4926075;29;19930;-80